sensor_id;sensor_type;location;lat;lon;timestamp;pressure;altitude;pressure_sealevel;temperature;humidity
65832;BME280;52593;42.648;23.332;2023-03-03T00:00:44;94571.97;;;2.67;93.41
65832;BME280;52593;42.648;23.332;2023-03-03T00:03:11;94559.88;;;2.65;92.86
65832;BME280;52593;42.648;23.332;2023-03-03T00:05:39;94551.81;;;2.66;92.82
65832;BME280;52593;42.648;23.332;2023-03-03T00:08:05;94552.47;;;2.59;93.02
65832;BME280;52593;42.648;23.332;2023-03-03T00:10:30;94555.38;;;2.56;93.54
65832;BME280;52593;42.648;23.332;2023-03-03T00:12:55;94546.34;;;2.48;93.78
65832;BME280;52593;42.648;23.332;2023-03-03T00:15:23;94553.13;;;2.51;94.23
65832;BME280;52593;42.648;23.332;2023-03-03T00:17:49;94547.16;;;2.49;94.29
65832;BME280;52593;42.648;23.332;2023-03-03T00:20:29;94555.91;;;2.49;94.30
65832;BME280;52593;42.648;23.332;2023-03-03T00:23:00;94557.06;;;2.57;94.02
65832;BME280;52593;42.648;23.332;2023-03-03T00:25:33;94547.28;;;2.47;94.32
65832;BME280;52593;42.648;23.332;2023-03-03T00:28:25;94551.22;;;2.53;94.37
65832;BME280;52593;42.648;23.332;2023-03-03T00:30:54;94552.31;;;2.50;94.56
65832;BME280;52593;42.648;23.332;2023-03-03T00:33:27;94552.72;;;2.56;94.61
65832;BME280;52593;42.648;23.332;2023-03-03T00:35:55;94547.44;;;2.56;94.41
65832;BME280;52593;42.648;23.332;2023-03-03T00:38:21;94553.19;;;2.61;94.32
65832;BME280;52593;42.648;23.332;2023-03-03T00:40:47;94552.31;;;2.60;94.50
65832;BME280;52593;42.648;23.332;2023-03-03T00:43:21;94542.03;;;2.57;94.27
65832;BME280;52593;42.648;23.332;2023-03-03T00:45:52;94535.91;;;2.57;94.73
65832;BME280;52593;42.648;23.332;2023-03-03T00:48:28;94533.41;;;2.55;94.67
65832;BME280;52593;42.648;23.332;2023-03-03T00:50:58;94529.22;;;2.53;94.46
65832;BME280;52593;42.648;23.332;2023-03-03T00:53:26;94531.31;;;2.59;94.40
65832;BME280;52593;42.648;23.332;2023-03-03T00:55:52;94523.81;;;2.54;94.52
65832;BME280;52593;42.648;23.332;2023-03-03T00:58:19;94516.75;;;2.55;94.71
65832;BME280;52593;42.648;23.332;2023-03-03T01:00:50;94513.69;;;2.59;94.38
65832;BME280;52593;42.648;23.332;2023-03-03T01:03:19;94495.59;;;2.55;94.47
65832;BME280;52593;42.648;23.332;2023-03-03T01:05:46;94494.47;;;2.57;94.14
65832;BME280;52593;42.648;23.332;2023-03-03T01:08:12;94508.13;;;2.62;94.24
65832;BME280;52593;42.648;23.332;2023-03-03T01:10:53;94503.41;;;2.66;93.85
65832;BME280;52593;42.648;23.332;2023-03-03T01:13:26;94493.97;;;2.63;94.07
65832;BME280;52593;42.648;23.332;2023-03-03T01:15:52;94499.34;;;2.62;93.85
65832;BME280;52593;42.648;23.332;2023-03-03T01:18:18;94496.59;;;2.63;93.89
65832;BME280;52593;42.648;23.332;2023-03-03T01:20:44;94489.06;;;2.59;93.87
65832;BME280;52593;42.648;23.332;2023-03-03T01:23:12;94491.31;;;2.63;94.21
65832;BME280;52593;42.648;23.332;2023-03-03T01:25:38;94503.41;;;2.66;93.70
65832;BME280;52593;42.648;23.332;2023-03-03T01:28:03;94503.72;;;2.73;93.56
65832;BME280;52593;42.648;23.332;2023-03-03T01:30:30;94499.13;;;2.65;93.36
65832;BME280;52593;42.648;23.332;2023-03-03T01:32:55;94495.63;;;2.64;93.66
65832;BME280;52593;42.648;23.332;2023-03-03T01:35:21;94495.34;;;2.58;93.72
65832;BME280;52593;42.648;23.332;2023-03-03T01:37:46;94491.69;;;2.59;94.05
65832;BME280;52593;42.648;23.332;2023-03-03T01:40:24;94490.47;;;2.63;93.83
65832;BME280;52593;42.648;23.332;2023-03-03T01:42:50;94490.38;;;2.74;93.92
65832;BME280;52593;42.648;23.332;2023-03-03T01:45:23;94491.31;;;2.73;93.36
65832;BME280;52593;42.648;23.332;2023-03-03T01:52:58;94485.34;;;2.71;93.44
65832;BME280;52593;42.648;23.332;2023-03-03T01:55:34;94489.78;;;2.71;93.41
65832;BME280;52593;42.648;23.332;2023-03-03T01:58:08;94480.47;;;2.76;93.44
65832;BME280;52593;42.648;23.332;2023-03-03T02:00:37;94477.84;;;2.76;93.55
65832;BME280;52593;42.648;23.332;2023-03-03T02:03:03;94480.22;;;2.79;93.01
65832;BME280;52593;42.648;23.332;2023-03-03T02:05:29;94477.44;;;2.81;93.08
65832;BME280;52593;42.648;23.332;2023-03-03T02:07:54;94490.22;;;2.76;93.25
65832;BME280;52593;42.648;23.332;2023-03-03T02:10:20;94492.00;;;2.75;93.25
65832;BME280;52593;42.648;23.332;2023-03-03T02:12:55;94489.09;;;2.78;92.89
65832;BME280;52593;42.648;23.332;2023-03-03T02:15:29;94475.06;;;2.68;93.63
65832;BME280;52593;42.648;23.332;2023-03-03T02:17:59;94489.78;;;2.71;93.79
65832;BME280;52593;42.648;23.332;2023-03-03T02:20:53;94480.06;;;2.71;93.43
65832;BME280;52593;42.648;23.332;2023-03-03T02:23:28;94483.69;;;2.70;94.04
65832;BME280;52593;42.648;23.332;2023-03-03T02:28:22;94484.22;;;2.64;93.72
65832;BME280;52593;42.648;23.332;2023-03-03T02:30:48;94485.31;;;2.61;94.03
65832;BME280;52593;42.648;23.332;2023-03-03T02:33:13;94482.00;;;2.59;93.93
65832;BME280;52593;42.648;23.332;2023-03-03T02:35:39;94482.53;;;2.63;94.11
65832;BME280;52593;42.648;23.332;2023-03-03T02:38:28;94491.19;;;2.65;94.00
65832;BME280;52593;42.648;23.332;2023-03-03T02:41:08;94490.19;;;2.66;94.16
65832;BME280;52593;42.648;23.332;2023-03-03T02:43:59;94486.03;;;2.63;94.22
65832;BME280;52593;42.648;23.332;2023-03-03T02:46:27;94493.69;;;2.66;94.23
65832;BME280;52593;42.648;23.332;2023-03-03T02:48:53;94475.84;;;2.59;94.05
65832;BME280;52593;42.648;23.332;2023-03-03T02:51:19;94484.50;;;2.61;94.17
65832;BME280;52593;42.648;23.332;2023-03-03T02:53:44;94487.56;;;2.66;94.64
65832;BME280;52593;42.648;23.332;2023-03-03T02:56:10;94478.13;;;2.63;94.25
65832;BME280;52593;42.648;23.332;2023-03-03T02:58:36;94480.47;;;2.66;94.36
65832;BME280;52593;42.648;23.332;2023-03-03T03:01:01;94482.56;;;2.73;94.24
65832;BME280;52593;42.648;23.332;2023-03-03T03:03:27;94484.63;;;2.69;94.60
65832;BME280;52593;42.648;23.332;2023-03-03T03:05:52;94480.63;;;2.65;94.63
65832;BME280;52593;42.648;23.332;2023-03-03T03:08:18;94472.56;;;2.76;94.48
65832;BME280;52593;42.648;23.332;2023-03-03T03:10:43;94475.59;;;2.72;94.78
65832;BME280;52593;42.648;23.332;2023-03-03T03:13:09;94473.66;;;2.74;95.30
65832;BME280;52593;42.648;23.332;2023-03-03T03:15:35;94476.44;;;2.72;95.46
65832;BME280;52593;42.648;23.332;2023-03-03T03:18:00;94480.06;;;2.71;95.98
65832;BME280;52593;42.648;23.332;2023-03-03T03:20:26;94472.25;;;2.60;96.19
65832;BME280;52593;42.648;23.332;2023-03-03T03:22:51;94484.91;;;2.66;96.45
65832;BME280;52593;42.648;23.332;2023-03-03T03:25:16;94468.06;;;2.57;96.85
65832;BME280;52593;42.648;23.332;2023-03-03T03:27:42;94470.72;;;2.57;97.15
65832;BME280;52593;42.648;23.332;2023-03-03T03:30:07;94475.03;;;2.58;97.85
65832;BME280;52593;42.648;23.332;2023-03-03T03:32:33;94465.41;;;2.57;98.08
65832;BME280;52593;42.648;23.332;2023-03-03T03:34:58;94470.56;;;2.59;98.05
65832;BME280;52593;42.648;23.332;2023-03-03T03:37:24;94467.09;;;2.58;98.34
65832;BME280;52593;42.648;23.332;2023-03-03T03:39:49;94456.94;;;2.44;98.71
65832;BME280;52593;42.648;23.332;2023-03-03T03:42:15;94461.28;;;2.55;99.15
65832;BME280;52593;42.648;23.332;2023-03-03T03:44:40;94460.81;;;2.49;99.46
65832;BME280;52593;42.648;23.332;2023-03-03T03:47:06;94461.97;;;2.47;99.44
65832;BME280;52593;42.648;23.332;2023-03-03T03:49:31;94463.06;;;2.54;99.58
65832;BME280;52593;42.648;23.332;2023-03-03T03:51:56;94450.25;;;2.49;99.46
65832;BME280;52593;42.648;23.332;2023-03-03T03:54:22;94454.44;;;2.52;99.28
65832;BME280;52593;42.648;23.332;2023-03-03T03:56:47;94462.22;;;2.54;99.32
65832;BME280;52593;42.648;23.332;2023-03-03T03:59:13;94455.41;;;2.41;99.79
65832;BME280;52593;42.648;23.332;2023-03-03T04:01:38;94453.84;;;2.39;100.00
65832;BME280;52593;42.648;23.332;2023-03-03T04:04:04;94452.63;;;2.33;100.00
65832;BME280;52593;42.648;23.332;2023-03-03T04:06:30;94446.63;;;2.31;100.00
65832;BME280;52593;42.648;23.332;2023-03-03T04:08:55;94455.25;;;2.33;100.00
65832;BME280;52593;42.648;23.332;2023-03-03T04:11:21;94449.56;;;2.38;100.00
65832;BME280;52593;42.648;23.332;2023-03-03T04:13:47;94445.81;;;2.40;100.00
65832;BME280;52593;42.648;23.332;2023-03-03T04:16:12;94436.91;;;2.31;100.00
65832;BME280;52593;42.648;23.332;2023-03-03T04:18:38;94439.81;;;2.28;100.00
65832;BME280;52593;42.648;23.332;2023-03-03T04:21:03;94439.81;;;2.28;100.00
65832;BME280;52593;42.648;23.332;2023-03-03T04:23:29;94447.59;;;2.30;100.00
65832;BME280;52593;42.648;23.332;2023-03-03T04:25:54;94450.94;;;2.32;100.00
65832;BME280;52593;42.648;23.332;2023-03-03T04:28:20;94441.91;;;2.35;100.00
65832;BME280;52593;42.648;23.332;2023-03-03T04:30:46;94437.75;;;2.32;100.00
65832;BME280;52593;42.648;23.332;2023-03-03T04:33:11;94445.53;;;2.34;100.00
65832;BME280;52593;42.648;23.332;2023-03-03T04:35:37;94446.19;;;2.26;100.00
65832;BME280;52593;42.648;23.332;2023-03-03T04:38:02;94435.22;;;2.21;100.00
65832;BME280;52593;42.648;23.332;2023-03-03T04:40:29;94446.63;;;2.31;100.00
65832;BME280;52593;42.648;23.332;2023-03-03T04:42:54;94436.78;;;2.33;100.00
65832;BME280;52593;42.648;23.332;2023-03-03T04:45:20;94437.44;;;2.25;100.00
65832;BME280;52593;42.648;23.332;2023-03-03T04:47:45;94443.69;;;2.34;100.00
65832;BME280;52593;42.648;23.332;2023-03-03T04:50:11;94442.34;;;2.40;100.00
65832;BME280;52593;42.648;23.332;2023-03-03T04:52:36;94434.53;;;2.28;100.00
65832;BME280;52593;42.648;23.332;2023-03-03T04:55:03;94441.91;;;2.35;100.00
65832;BME280;52593;42.648;23.332;2023-03-03T04:57:28;94441.19;;;2.32;100.00
65832;BME280;52593;42.648;23.332;2023-03-03T04:59:54;94448.16;;;2.34;100.00
65832;BME280;52593;42.648;23.332;2023-03-03T05:02:19;94453.84;;;2.29;100.00
65832;BME280;52593;42.648;23.332;2023-03-03T05:04:45;94439.28;;;2.35;100.00
65832;BME280;52593;42.648;23.332;2023-03-03T05:07:10;94443.28;;;2.29;100.00
65832;BME280;52593;42.648;23.332;2023-03-03T05:09:36;94449.72;;;2.36;100.00
65832;BME280;52593;42.648;23.332;2023-03-03T05:12:02;94454.13;;;2.36;100.00
65832;BME280;52593;42.648;23.332;2023-03-03T05:14:27;94453.03;;;2.38;100.00
65832;BME280;52593;42.648;23.332;2023-03-03T05:16:53;94457.78;;;2.44;100.00
65832;BME280;52593;42.648;23.332;2023-03-03T05:19:18;94459.59;;;2.44;100.00
65832;BME280;52593;42.648;23.332;2023-03-03T05:21:44;94455.81;;;2.46;100.00
65832;BME280;52593;42.648;23.332;2023-03-03T05:24:11;94451.63;;;2.34;100.00
65832;BME280;52593;42.648;23.332;2023-03-03T05:26:37;94458.91;;;2.52;100.00
65832;BME280;52593;42.648;23.332;2023-03-03T05:29:03;94451.25;;;2.58;100.00
65832;BME280;52593;42.648;23.332;2023-03-03T05:31:28;94456.81;;;2.55;100.00
65832;BME280;52593;42.648;23.332;2023-03-03T05:33:54;94454.72;;;2.59;100.00
65832;BME280;52593;42.648;23.332;2023-03-03T05:36:19;94463.63;;;2.67;100.00
65832;BME280;52593;42.648;23.332;2023-03-03T05:38:45;94463.63;;;2.67;100.00
65832;BME280;52593;42.648;23.332;2023-03-03T05:41:10;94454.03;;;2.57;100.00
65832;BME280;52593;42.648;23.332;2023-03-03T05:43:35;94461.28;;;2.64;100.00
65832;BME280;52593;42.648;23.332;2023-03-03T05:46:02;94462.13;;;2.65;100.00
65832;BME280;52593;42.648;23.332;2023-03-03T05:48:27;94468.66;;;2.71;100.00
65832;BME280;52593;42.648;23.332;2023-03-03T05:50:53;94469.22;;;2.74;100.00
65832;BME280;52593;42.648;23.332;2023-03-03T05:53:18;94465.03;;;2.72;100.00
65832;BME280;52593;42.648;23.332;2023-03-03T05:55:43;94474.78;;;2.71;100.00
65832;BME280;52593;42.648;23.332;2023-03-03T05:58:09;94466.59;;;2.74;100.00
65832;BME280;52593;42.648;23.332;2023-03-03T06:00:34;94461.72;;;2.70;100.00
65832;BME280;52593;42.648;23.332;2023-03-03T06:03:00;94462.00;;;2.66;100.00
65832;BME280;52593;42.648;23.332;2023-03-03T06:05:25;94475.59;;;2.72;100.00
65832;BME280;52593;42.648;23.332;2023-03-03T06:07:51;94467.00;;;2.79;100.00
65832;BME280;52593;42.648;23.332;2023-03-03T06:10:16;94475.78;;;2.90;100.00
65832;BME280;52593;42.648;23.332;2023-03-03T06:12:42;94469.50;;;2.81;100.00
65832;BME280;52593;42.648;23.332;2023-03-03T06:15:08;94462.84;;;2.87;100.00
65832;BME280;52593;42.648;23.332;2023-03-03T06:17:34;94470.47;;;2.80;100.00
65832;BME280;52593;42.648;23.332;2023-03-03T06:19:59;94470.47;;;2.70;100.00
65832;BME280;52593;42.648;23.332;2023-03-03T06:22:25;94485.22;;;2.73;100.00
65832;BME280;52593;42.648;23.332;2023-03-03T06:24:50;94485.50;;;2.70;100.00
65832;BME280;52593;42.648;23.332;2023-03-03T06:27:17;94476.03;;;2.67;100.00
65832;BME280;52593;42.648;23.332;2023-03-03T06:29:42;94484.66;;;2.79;100.00
65832;BME280;52593;42.648;23.332;2023-03-03T06:32:08;94475.06;;;2.78;100.00
65832;BME280;52593;42.648;23.332;2023-03-03T06:34:33;94477.56;;;2.79;100.00
65832;BME280;52593;42.648;23.332;2023-03-03T06:36:58;94472.41;;;2.78;100.00
65832;BME280;52593;42.648;23.332;2023-03-03T06:39:24;94473.38;;;2.77;100.00
65832;BME280;52593;42.648;23.332;2023-03-03T06:41:49;94472.84;;;2.73;99.97
65832;BME280;52593;42.648;23.332;2023-03-03T06:44:15;94487.16;;;2.80;100.00
65832;BME280;52593;42.648;23.332;2023-03-03T06:46:40;94490.78;;;2.79;99.57
65832;BME280;52593;42.648;23.332;2023-03-03T06:49:05;94485.34;;;2.81;99.22
65832;BME280;52593;42.648;23.332;2023-03-03T06:51:34;94488.13;;;2.79;98.81
65832;BME280;52593;42.648;23.332;2023-03-03T06:54:11;94485.91;;;2.84;98.98
65832;BME280;52593;42.648;23.332;2023-03-03T06:56:38;94487.84;;;2.92;99.12
65832;BME280;52593;42.648;23.332;2023-03-03T06:59:17;94489.81;;;3.00;98.78
65832;BME280;52593;42.648;23.332;2023-03-03T07:01:46;94492.03;;;3.04;98.80
65832;BME280;52593;42.648;23.332;2023-03-03T07:04:21;94496.78;;;3.01;98.79
65832;BME280;52593;42.648;23.332;2023-03-03T07:06:49;94494.97;;;3.11;98.76
65832;BME280;52593;42.648;23.332;2023-03-03T07:09:27;94490.63;;;3.20;98.04
65832;BME280;52593;42.648;23.332;2023-03-03T07:12:00;94484.38;;;3.21;96.82
65832;BME280;52593;42.648;23.332;2023-03-03T07:14:28;94489.53;;;3.22;96.96
65832;BME280;52593;42.648;23.332;2023-03-03T07:16:59;94494.41;;;3.27;97.19
65832;BME280;52593;42.648;23.332;2023-03-03T07:19:32;94483.97;;;3.26;96.88
65832;BME280;52593;42.648;23.332;2023-03-03T07:22:03;94484.94;;;3.34;97.35
65832;BME280;52593;42.648;23.332;2023-03-03T07:24:36;94482.25;;;3.44;97.01
65832;BME280;52593;42.648;23.332;2023-03-03T07:27:23;94495.34;;;3.46;96.75
65832;BME280;52593;42.648;23.332;2023-03-03T07:29:51;94488.66;;;3.51;97.90
65832;BME280;52593;42.648;23.332;2023-03-03T07:32:25;94492.69;;;3.46;97.60
65832;BME280;52593;42.648;23.332;2023-03-03T07:34:53;94477.13;;;3.43;95.77
65832;BME280;52593;42.648;23.332;2023-03-03T07:37:26;94481.28;;;3.45;96.68
65832;BME280;52593;42.648;23.332;2023-03-03T07:39:53;94484.75;;;3.55;97.26
65832;BME280;52593;42.648;23.332;2023-03-03T07:42:24;94486.69;;;3.63;97.62
65832;BME280;52593;42.648;23.332;2023-03-03T07:44:58;94488.22;;;3.66;96.27
65832;BME280;52593;42.648;23.332;2023-03-03T07:49:53;94468.31;;;3.52;95.98
65832;BME280;52593;42.648;23.332;2023-03-03T07:54:54;94471.69;;;3.54;96.07
65832;BME280;52593;42.648;23.332;2023-03-03T07:57:25;94479.31;;;3.67;97.65
65832;BME280;52593;42.648;23.332;2023-03-03T08:05:40;94475.91;;;3.84;95.70
65832;BME280;52593;42.648;23.332;2023-03-03T08:08:29;94472.13;;;3.97;95.05
65832;BME280;52593;42.648;23.332;2023-03-03T08:11:01;94471.56;;;3.93;95.57
65832;BME280;52593;42.648;23.332;2023-03-03T08:18:30;94468.69;;;4.14;90.23
65832;BME280;52593;42.648;23.332;2023-03-03T08:23:46;94472.50;;;4.02;91.37
65832;BME280;52593;42.648;23.332;2023-03-03T08:26:16;94464.56;;;4.02;92.28
65832;BME280;52593;42.648;23.332;2023-03-03T08:28:43;94466.97;;;3.95;92.29
65832;BME280;52593;42.648;23.332;2023-03-03T08:31:08;94457.38;;;3.84;93.19
65832;BME280;52593;42.648;23.332;2023-03-03T08:33:34;94463.16;;;4.07;93.25
65832;BME280;52593;42.648;23.332;2023-03-03T08:35:59;94449.22;;;4.05;92.73
65832;BME280;52593;42.648;23.332;2023-03-03T08:38:25;94451.75;;;3.97;91.77
65832;BME280;52593;42.648;23.332;2023-03-03T08:40:51;94462.34;;;3.97;92.60
65832;BME280;52593;42.648;23.332;2023-03-03T08:43:16;94455.13;;;3.89;95.17
65832;BME280;52593;42.648;23.332;2023-03-03T08:45:46;94457.94;;;3.88;96.23
65832;BME280;52593;42.648;23.332;2023-03-03T08:48:12;94458.31;;;3.93;94.78
65832;BME280;52593;42.648;23.332;2023-03-03T08:50:38;94457.94;;;3.78;94.67
65832;BME280;52593;42.648;23.332;2023-03-03T08:53:05;94468.47;;;3.98;95.31
65832;BME280;52593;42.648;23.332;2023-03-03T08:55:30;94456.19;;;4.06;94.61
65832;BME280;52593;42.648;23.332;2023-03-03T08:57:56;94465.59;;;4.19;93.97
65832;BME280;52593;42.648;23.332;2023-03-03T09:00:21;94456.88;;;4.08;93.69
65832;BME280;52593;42.648;23.332;2023-03-03T09:02:48;94458.09;;;4.14;93.33
65832;BME280;52593;42.648;23.332;2023-03-03T09:05:15;94464.81;;;4.08;93.20
65832;BME280;52593;42.648;23.332;2023-03-03T09:07:42;94471.88;;;4.18;92.94
65832;BME280;52593;42.648;23.332;2023-03-03T09:10:11;94459.66;;;4.07;92.12
65832;BME280;52593;42.648;23.332;2023-03-03T09:12:42;94466.19;;;4.13;92.77
65832;BME280;52593;42.648;23.332;2023-03-03T09:15:18;94463.09;;;4.17;93.60
65832;BME280;52593;42.648;23.332;2023-03-03T09:17:44;94465.91;;;4.16;93.68
65832;BME280;52593;42.648;23.332;2023-03-03T09:20:37;94462.13;;;4.18;93.57
65832;BME280;52593;42.648;23.332;2023-03-03T09:26:22;94463.94;;;4.18;92.28
65832;BME280;52593;42.648;23.332;2023-03-03T09:28:52;94463.41;;;4.14;94.36
65832;BME280;52593;42.648;23.332;2023-03-03T09:31:42;94458.91;;;4.24;94.39
65832;BME280;52593;42.648;23.332;2023-03-03T09:34:24;94463.16;;;4.35;94.07
65832;BME280;52593;42.648;23.332;2023-03-03T09:36:53;94456.84;;;4.36;93.67
65832;BME280;52593;42.648;23.332;2023-03-03T09:39:24;94465.53;;;4.28;92.19
65832;BME280;52593;42.648;23.332;2023-03-03T09:44:43;94457.38;;;4.22;92.21
65832;BME280;52593;42.648;23.332;2023-03-03T09:47:41;94464.56;;;4.29;93.34
65832;BME280;52593;42.648;23.332;2023-03-03T10:00:58;94450.94;;;4.52;87.42
65832;BME280;52593;42.648;23.332;2023-03-03T10:09:40;94457.88;;;4.35;89.35
65832;BME280;52593;42.648;23.332;2023-03-03T10:17:24;94441.31;;;4.23;90.47
65832;BME280;52593;42.648;23.332;2023-03-03T10:20:15;94452.31;;;4.28;90.61
65832;BME280;52593;42.648;23.332;2023-03-03T10:23:09;94447.78;;;4.39;90.28
65832;BME280;52593;42.648;23.332;2023-03-03T10:28:44;94434.84;;;4.36;91.65
65832;BME280;52593;42.648;23.332;2023-03-03T10:31:26;94445.22;;;4.47;89.13
65832;BME280;52593;42.648;23.332;2023-03-03T10:37:17;94432.97;;;4.46;88.95
65832;BME280;52593;42.648;23.332;2023-03-03T10:40:08;94434.78;;;4.45;91.65
65832;BME280;52593;42.648;23.332;2023-03-03T10:45:26;94436.03;;;4.69;89.50
65832;BME280;52593;42.648;23.332;2023-03-03T10:48:35;94435.28;;;4.77;87.39
65832;BME280;52593;42.648;23.332;2023-03-03T10:56:26;94425.59;;;4.86;88.00
65832;BME280;52593;42.648;23.332;2023-03-03T10:59:03;94426.72;;;4.65;86.67
65832;BME280;52593;42.648;23.332;2023-03-03T11:01:44;94425.09;;;4.54;87.31
65832;BME280;52593;42.648;23.332;2023-03-03T11:12:53;94413.31;;;4.21;90.01
65832;BME280;52593;42.648;23.332;2023-03-03T11:23:28;94400.81;;;4.13;91.07
65832;BME280;52593;42.648;23.332;2023-03-03T11:36:49;94392.97;;;3.93;93.97
65832;BME280;52593;42.648;23.332;2023-03-03T11:39:22;94390.28;;;4.03;94.56
65832;BME280;52593;42.648;23.332;2023-03-03T11:47:41;94390.22;;;4.13;92.33
65832;BME280;52593;42.648;23.332;2023-03-03T11:50:23;94383.47;;;4.01;91.76
65832;BME280;52593;42.648;23.332;2023-03-03T11:53:03;94391.81;;;4.06;92.28
65832;BME280;52593;42.648;23.332;2023-03-03T11:55:36;94377.56;;;4.07;93.58
65832;BME280;52593;42.648;23.332;2023-03-03T12:01:17;94388.88;;;4.27;95.07
65832;BME280;52593;42.648;23.332;2023-03-03T12:06:23;94386.38;;;4.25;94.29
65832;BME280;52593;42.648;23.332;2023-03-03T12:14:35;94390.28;;;4.03;94.08
65832;BME280;52593;42.648;23.332;2023-03-03T12:23:21;94391.38;;;4.28;93.99
65832;BME280;52593;42.648;23.332;2023-03-03T12:28:37;94385.72;;;4.23;93.33
65832;BME280;52593;42.648;23.332;2023-03-03T12:34:31;94384.88;;;4.23;95.25
65832;BME280;52593;42.648;23.332;2023-03-03T12:37:04;94394.19;;;4.27;95.03
65832;BME280;52593;42.648;23.332;2023-03-03T12:47:52;94386.88;;;4.39;94.14
65832;BME280;52593;42.648;23.332;2023-03-03T12:53:29;94392.84;;;4.23;95.94
65832;BME280;52593;42.648;23.332;2023-03-03T12:56:30;94386.97;;;4.19;97.72
65832;BME280;52593;42.648;23.332;2023-03-03T12:59:08;94386.22;;;4.27;98.93
65832;BME280;52593;42.648;23.332;2023-03-03T13:02:02;94385.78;;;4.32;98.49
65832;BME280;52593;42.648;23.332;2023-03-03T13:04:50;94381.56;;;4.39;97.87
65832;BME280;52593;42.648;23.332;2023-03-03T13:13:00;94369.97;;;4.22;98.44
65832;BME280;52593;42.648;23.332;2023-03-03T13:15:35;94384.59;;;4.26;99.65
65832;BME280;52593;42.648;23.332;2023-03-03T13:18:28;94378.13;;;4.28;100.00
65832;BME280;52593;42.648;23.332;2023-03-03T13:21:09;94379.66;;;4.31;100.00
65832;BME280;52593;42.648;23.332;2023-03-03T13:26:35;94366.94;;;4.35;100.00
65832;BME280;52593;42.648;23.332;2023-03-03T13:29:11;94373.09;;;4.53;100.00
65832;BME280;52593;42.648;23.332;2023-03-03T13:31:47;94375.72;;;4.53;99.94
65832;BME280;52593;42.648;23.332;2023-03-03T13:36:53;94379.84;;;4.47;97.90
65832;BME280;52593;42.648;23.332;2023-03-03T13:39:40;94385.19;;;4.38;99.17
65832;BME280;52593;42.648;23.332;2023-03-03T13:44:45;94379.75;;;4.39;100.00
65832;BME280;52593;42.648;23.332;2023-03-03T13:50:25;94371.56;;;4.33;100.00
65832;BME280;52593;42.648;23.332;2023-03-03T13:55:44;94374.03;;;4.16;98.82
65832;BME280;52593;42.648;23.332;2023-03-03T14:06:29;94375.41;;;4.20;100.00
65832;BME280;52593;42.648;23.332;2023-03-03T14:12:03;94374.34;;;4.13;100.00
65832;BME280;52593;42.648;23.332;2023-03-03T14:20:43;94370.03;;;4.12;100.00
65832;BME280;52593;42.648;23.332;2023-03-03T14:26:06;94360.41;;;4.11;100.00
65832;BME280;52593;42.648;23.332;2023-03-03T14:28:44;94357.63;;;4.13;100.00
65832;BME280;52593;42.648;23.332;2023-03-03T14:31:39;94363.91;;;4.29;100.00
65832;BME280;52593;42.648;23.332;2023-03-03T14:36:40;94355.97;;;4.29;100.00
65832;BME280;52593;42.648;23.332;2023-03-03T14:39:31;94354.00;;;4.32;100.00
65832;BME280;52593;42.648;23.332;2023-03-03T14:41:57;94353.03;;;4.33;100.00
65832;BME280;52593;42.648;23.332;2023-03-03T14:44:30;94359.56;;;4.38;100.00
65832;BME280;52593;42.648;23.332;2023-03-03T14:49:37;94362.84;;;4.22;100.00
65832;BME280;52593;42.648;23.332;2023-03-03T14:54:38;94362.25;;;4.28;100.00
65832;BME280;52593;42.648;23.332;2023-03-03T15:05:25;94350.59;;;4.21;100.00
65832;BME280;52593;42.648;23.332;2023-03-03T15:07:56;94357.94;;;4.27;100.00
65832;BME280;52593;42.648;23.332;2023-03-03T15:10:30;94355.16;;;4.29;100.00
65832;BME280;52593;42.648;23.332;2023-03-03T15:12:56;94355.53;;;4.34;100.00
65832;BME280;52593;42.648;23.332;2023-03-03T15:15:24;94359.28;;;4.32;100.00
65832;BME280;52593;42.648;23.332;2023-03-03T15:22:49;94335.91;;;4.27;100.00
65832;BME280;52593;42.648;23.332;2023-03-03T15:33:18;94357.56;;;4.40;100.00
65832;BME280;52593;42.648;23.332;2023-03-03T15:44:13;94360.97;;;4.33;100.00
65832;BME280;52593;42.648;23.332;2023-03-03T15:46:52;94360.38;;;4.39;100.00
65832;BME280;52593;42.648;23.332;2023-03-03T16:03:38;94371.75;;;4.49;100.00
65832;BME280;52593;42.648;23.332;2023-03-03T16:06:10;94369.47;;;4.54;100.00
65832;BME280;52593;42.648;23.332;2023-03-03T16:08:48;94386.34;;;4.53;100.00
65832;BME280;52593;42.648;23.332;2023-03-03T16:11:33;94383.69;;;4.35;100.00
65832;BME280;52593;42.648;23.332;2023-03-03T16:20:08;94391.38;;;4.28;100.00
65832;BME280;52593;42.648;23.332;2023-03-03T16:26:03;94398.09;;;4.51;100.00
65832;BME280;52593;42.648;23.332;2023-03-03T16:28:23;94391.94;;;4.50;100.00
65832;BME280;52593;42.648;23.332;2023-03-03T16:31:13;94401.78;;;4.40;100.00
65832;BME280;52593;42.648;23.332;2023-03-03T16:34:29;94392.09;;;4.49;100.00
65832;BME280;52593;42.648;23.332;2023-03-03T16:37:06;94395.47;;;4.41;100.00
65832;BME280;52593;42.648;23.332;2023-03-03T16:39:53;94395.94;;;4.36;100.00
65832;BME280;52593;42.648;23.332;2023-03-03T16:42:28;94406.06;;;4.41;100.00
65832;BME280;52593;42.648;23.332;2023-03-03T16:45:21;94416.84;;;4.57;100.00
65832;BME280;52593;42.648;23.332;2023-03-03T16:53:40;94422.84;;;4.41;100.00
65832;BME280;52593;42.648;23.332;2023-03-03T16:56:35;94418.34;;;4.42;100.00
65832;BME280;52593;42.648;23.332;2023-03-03T17:07:21;94425.94;;;4.37;100.00
65832;BME280;52593;42.648;23.332;2023-03-03T17:09:59;94432.72;;;4.39;100.00
65832;BME280;52593;42.648;23.332;2023-03-03T17:12:37;94434.53;;;4.39;100.00
65832;BME280;52593;42.648;23.332;2023-03-03T17:17:44;94438.72;;;4.41;100.00
65832;BME280;52593;42.648;23.332;2023-03-03T17:28:54;94442.69;;;4.55;100.00
65832;BME280;52593;42.648;23.332;2023-03-03T17:31:49;94445.53;;;4.44;100.00
65832;BME280;52593;42.648;23.332;2023-03-03T17:34:45;94446.06;;;4.47;100.00
65832;BME280;52593;42.648;23.332;2023-03-03T17:43:01;94458.03;;;4.52;100.00
65832;BME280;52593;42.648;23.332;2023-03-03T17:45:34;94459.19;;;4.49;100.00